Repto Sobrino, Puerto Rico
Current Conditions -  °F | °C
As of 8:56 AM on Saturday 22 Nov 2014 (Local Time) from TJSJ Reporting Station
Light Rain Light Rain  
Wind Chill: 77°   Ceiling: 5000
Heat Index: 78°   Visibility: 10mi
Dew Point: 76°   Wind: 0mph
Humidity: 96%   Direction: NA
Pressure: 30.04"   Gusts: NA
Location:  18.4061°N, 66.3012°W
Report Text: TJSJ 221256Z 00000KT 10SM -RA FEW014 BKN050 BKN090 25/24 A3004 RMK AO2 RAE30B49 SLP173 VIS LWR W P0012 T02500244
Loading
Personal Weather Stations






























Interactive Weather Map New forecast layout! Learn more

10-Day Weather Forecast

Advertisements
Track Severe Weather on mobile